Time;durP1;ratioP1;P1;durP2;ratioP2;P2;SDS_P1;SDS_P2;PMS_P1;PMS_P2;Temp;Humidity;BMP_temperature;BMP_pressure;BME280_temperature;BME280_humidity;BME280_pressure;Samples;Min_cycle;Max_cycle;Signal;HPM_P1;HPM_P2
2022/11/24 00:00:32;;;;;;;;;;;;;;;21.61;44.09;99586.75;7249140;19;153659;-60
2022/11/24 00:02:59;;;;;;;;;;;;;;;21.61;43.93;99589.56;7248201;19;152707;-60
2022/11/24 00:05:26;;;;;;;;;;;;;;;21.62;43.39;99605.28;7251868;19;155188;-60
2022/11/24 00:07:53;;;;;;;;;;;;;;;21.61;44.11;99606.44;7254406;19;154320;-60
2022/11/24 00:10:20;;;;;;;;;;;;;;;21.62;43.84;99605.28;7250748;19;152641;-60
2022/11/24 00:12:47;;;;;;;;;;;;;;;21.61;43.68;99610.06;7248107;19;153425;-60
2022/11/24 00:15:14;;;;;;;;;;;;;;;21.61;43.63;99615.69;7250028;19;153331;-59
2022/11/24 00:17:41;;;;;;;;;;;;;;;21.61;43.83;99612.06;7250532;19;153240;-59
2022/11/24 00:20:08;;;;;;;;;;;;;;;21.59;43.58;99612.41;7251437;19;154951;-59
2022/11/24 00:22:35;;;;;;;;;;;;;;;21.60;43.58;99613.22;7246207;19;153523;-59
2022/11/24 00:25:02;;;;;;;;;;;;;;;21.59;43.75;99626.44;7247530;19;152598;-59
2022/11/24 00:27:29;;;;;;;;;;;;;;;21.59;43.39;99636.88;7253368;19;153805;-59
2022/11/24 00:29:58;;;;;;;;;;;;;;;21.57;43.60;99639.22;7259184;19;153833;-59
2022/11/24 00:32:28;;;;;;;;;;;;;;;21.56;43.42;99651.63;7255305;19;152501;-59
2022/11/24 00:34:55;;;;;;;;;;;;;;;21.53;43.84;99674.81;7253201;19;153771;-59
2022/11/24 00:37:22;;;;;;;;;;;;;;;21.52;43.67;99685.22;7251907;19;153407;-58
2022/11/24 00:39:49;;;;;;;;;;;;;;;21.49;43.81;99702.78;7252687;19;152783;-60
2022/11/24 00:42:16;;;;;;;;;;;;;;;21.48;43.32;99705.94;7248745;19;155157;-59
2022/11/24 00:44:42;;;;;;;;;;;;;;;21.47;43.67;99710.75;7255452;19;152727;-59
2022/11/24 00:47:09;;;;;;;;;;;;;;;21.45;43.48;99712.22;7254165;19;154719;-60
2022/11/24 00:49:36;;;;;;;;;;;;;;;21.42;43.63;99713.75;7251375;19;154605;-59
2022/11/24 00:52:03;;;;;;;;;;;;;;;21.40;43.80;99715.25;7258904;19;153363;-59
2022/11/24 00:54:30;;;;;;;;;;;;;;;21.39;44.03;99722.06;7247414;19;155177;-59
2022/11/24 00:56:57;;;;;;;;;;;;;;;21.35;44.05;99727.53;7250513;19;152097;-59
2022/11/24 00:59:24;;;;;;;;;;;;;;;21.33;44.11;99729.88;7251826;19;153329;-59
2022/11/24 01:01:51;;;;;;;;;;;;;;;21.32;43.92;99736.66;7249648;19;154700;-60
2022/11/24 01:04:18;;;;;;;;;;;;;;;21.29;44.17;99737.34;7253524;19;153887;-60
2022/11/24 01:06:44;;;;;;;;;;;;;;;21.26;44.33;99750.06;7251695;19;153711;-60
2022/11/24 01:09:11;;;;;;;;;;;;;;;21.24;43.92;99758.03;7250376;19;152618;-59
2022/11/24 01:14:08;;;;;;;;;;;;;;;21.25;44.98;99770.09;7265190;19;153542;-59
2022/11/24 01:16:37;;;;;;;;;;;;;;;21.19;43.70;99769.47;7259950;19;154252;-59
2022/11/24 01:19:04;;;;;;;;;;;;;;;21.15;44.29;99776.13;7261703;19;153710;-59
2022/11/24 01:21:31;;;;;;;;;;;;;;;21.10;43.88;99787.50;7256516;19;155741;-59
2022/11/24 01:23:58;;;;;;;;;;;;;;;21.07;44.35;99788.22;7258684;19;152596;-59
2022/11/24 01:26:25;;;;;;;;;;;;;;;21.01;44.11;99783.94;7256593;19;153509;-59
2022/11/24 01:28:53;;;;;;;;;;;;;;;21.00;44.18;99783.13;7256503;19;154334;-59
2022/11/24 01:31:20;;;;;;;;;;;;;;;21.00;44.65;99794.34;7256929;19;154531;-59
2022/11/24 01:33:47;;;;;;;;;;;;;;;20.96;44.42;99804.63;7260941;19;154300;-58
2022/11/24 01:36:14;;;;;;;;;;;;;;;20.94;44.77;99812.53;7256559;19;154734;-59
2022/11/24 01:38:41;;;;;;;;;;;;;;;20.90;44.87;99811.56;7250474;19;153193;-60
2022/11/24 01:41:10;;;;;;;;;;;;;;;20.90;44.84;99816.38;7250812;19;153295;-59
2022/11/24 01:43:37;;;;;;;;;;;;;;;20.88;45.03;99824.31;7253850;19;152673;-59
2022/11/24 01:46:14;;;;;;;;;;;;;;;20.86;44.88;99821.84;7252655;19;153720;-59
2022/11/24 01:48:44;;;;;;;;;;;;;;;20.83;44.78;99830.94;7253538;19;154967;-59
2022/11/24 01:51:13;;;;;;;;;;;;;;;20.80;45.24;99828.84;7256483;19;153689;-59
2022/11/24 01:53:43;;;;;;;;;;;;;;;20.79;45.00;99838.41;7252965;19;154804;-59
2022/11/24 01:56:11;;;;;;;;;;;;;;;20.77;45.38;99846.31;7256531;19;154592;-59
2022/11/24 01:58:39;;;;;;;;;;;;;;;20.77;45.21;99858.38;7254375;19;153612;-59
2022/11/24 02:01:07;;;;;;;;;;;;;;;20.74;45.06;99859.06;7254429;19;154690;-59
2022/11/24 02:03:35;;;;;;;;;;;;;;;20.72;45.13;99861.38;7254011;19;153477;-59
2022/11/24 02:06:06;;;;;;;;;;;;;;;20.74;45.12;99870.28;7254187;19;153665;-59
2022/11/24 02:08:38;;;;;;;;;;;;;;;20.71;45.21;99870.16;7246913;19;152891;-59
2022/11/24 02:11:05;;;;;;;;;;;;;;;20.69;45.22;99870.47;7249749;19;152654;-58
2022/11/24 02:13:34;;;;;;;;;;;;;;;20.69;44.98;99876.09;7251964;19;154312;-59
2022/11/24 02:16:01;;;;;;;;;;;;;;;20.69;44.80;99872.44;7251108;19;153582;-59
2022/11/24 02:18:29;;;;;;;;;;;;;;;20.66;44.88;99878.75;7258005;19;155123;-59
2022/11/24 02:20:56;;;;;;;;;;;;;;;20.66;44.80;99885.19;7249727;19;153334;-58
2022/11/24 02:23:27;;;;;;;;;;;;;;;20.65;44.59;99886.34;7249935;19;154062;-59
2022/11/24 02:25:54;;;;;;;;;;;;;;;20.61;44.90;99896.59;7253596;19;153644;-59
2022/11/24 02:28:22;;;;;;;;;;;;;;;20.63;44.97;99899.88;7254834;19;152665;-59
2022/11/24 02:30:50;;;;;;;;;;;;;;;20.61;44.98;99905.00;7254669;19;153270;-58
2022/11/24 02:33:17;;;;;;;;;;;;;;;20.58;44.76;99910.47;7259010;19;154037;-58
2022/11/24 02:35:44;;;;;;;;;;;;;;;20.56;44.57;99913.59;7254057;19;155089;-58
2022/11/24 02:38:12;;;;;;;;;;;;;;;20.55;45.01;99920.38;7234606;19;153815;-59
2022/11/24 02:40:41;;;;;;;;;;;;;;;20.53;45.21;99924.69;7246199;19;153753;-58
2022/11/24 02:43:11;;;;;;;;;;;;;;;20.52;44.96;99940.69;7254152;19;154307;-58
2022/11/24 02:45:38;;;;;;;;;;;;;;;20.49;45.15;99946.16;7253386;19;153718;-58
2022/11/24 02:48:05;;;;;;;;;;;;;;;20.49;44.89;99963.78;7240606;19;154596;-58
2022/11/24 02:50:32;;;;;;;;;;;;;;;20.46;45.05;99958.84;7252338;19;153206;-58
2022/11/24 02:52:59;;;;;;;;;;;;;;;20.45;45.16;99957.19;7255829;19;155379;-58
2022/11/24 02:55:26;;;;;;;;;;;;;;;20.42;45.10;99955.06;7249690;19;153493;-58
2022/11/24 02:57:53;;;;;;;;;;;;;;;20.41;45.08;99959.00;7238166;19;154126;-59
2022/11/24 03:00:20;;;;;;;;;;;;;;;20.41;45.25;99970.25;7249155;19;154120;-58
2022/11/24 03:02:47;;;;;;;;;;;;;;;20.41;45.29;99973.03;7259604;19;153829;-58
2022/11/24 03:05:14;;;;;;;;;;;;;;;20.40;45.59;99972.22;7251223;19;154003;-58
2022/11/24 03:07:41;;;;;;;;;;;;;;;20.38;45.27;99979.31;7083366;19;3115127;-59
2022/11/24 03:10:09;;;;;;;;;;;;;;;20.35;45.35;99986.41;7246162;19;152846;-58
2022/11/24 03:12:36;;;;;;;;;;;;;;;20.33;45.29;99982.28;7258044;19;153293;-58
2022/11/24 03:15:04;;;;;;;;;;;;;;;20.29;45.32;99973.69;7255057;19;155951;-58
2022/11/24 03:17:31;;;;;;;;;;;;;;;20.28;45.60;99974.84;7256941;19;153861;-58
2022/11/24 03:20:00;;;;;;;;;;;;;;;20.25;45.53;99978.31;7239827;19;152626;-59
2022/11/24 03:22:30;;;;;;;;;;;;;;;20.26;45.50;99981.94;7254350;19;154162;-58
2022/11/24 03:24:58;;;;;;;;;;;;;;;20.25;45.47;99985.91;7260510;19;154410;-58
2022/11/24 03:27:25;;;;;;;;;;;;;;;20.20;45.56;100002.91;7248313;19;154175;-58
2022/11/24 03:29:52;;;;;;;;;;;;;;;20.20;45.69;99992.50;7248282;19;152245;-58
2022/11/24 03:32:18;;;;;;;;;;;;;;;20.20;45.60;99997.28;7251869;19;153346;-58
2022/11/24 03:34:46;;;;;;;;;;;;;;;20.16;45.75;100005.53;7245709;19;154321;-58
2022/11/24 03:37:12;;;;;;;;;;;;;;;20.14;45.68;100010.63;7249680;19;152933;-59
2022/11/24 03:39:39;;;;;;;;;;;;;;;20.11;46.10;100021.69;7251041;19;153962;-58
2022/11/24 03:42:06;;;;;;;;;;;;;;;20.09;46.03;100023.97;7251540;19;154516;-58
2022/11/24 03:44:33;;;;;;;;;;;;;;;20.07;45.83;100026.31;7258755;19;153726;-59
2022/11/24 03:47:00;;;;;;;;;;;;;;;20.06;45.87;100027.44;7249159;19;155675;-58
2022/11/24 03:49:27;;;;;;;;;;;;;;;20.03;46.10;100028.13;7249468;19;153716;-58
2022/11/24 03:51:54;;;;;;;;;;;;;;;20.00;46.19;100021.16;7253821;19;154124;-58
2022/11/24 03:54:21;;;;;;;;;;;;;;;19.99;46.04;100030.72;7251658;19;153533;-59
2022/11/24 03:56:48;;;;;;;;;;;;;;;19.98;46.18;100041.16;7252236;19;153609;-59
2022/11/24 03:59:15;;;;;;;;;;;;;;;19.94;46.65;100037.31;7245832;19;153373;-58
2022/11/24 04:01:42;;;;;;;;;;;;;;;19.92;46.63;100036.00;7249104;19;152685;-58
2022/11/24 04:04:10;;;;;;;;;;;;;;;19.90;46.76;100050.34;7246865;19;152841;-59
2022/11/24 04:06:37;;;;;;;;;;;;;;;19.90;46.47;100038.28;7258117;19;153702;-59
2022/11/24 04:09:04;;;;;;;;;;;;;;;19.86;46.47;100052.16;7247896;19;154980;-58
2022/11/24 04:14:01;;;;;;;;;;;;;;;19.84;46.51;100057.28;7247044;19;152642;-58
2022/11/24 04:16:28;;;;;;;;;;;;;;;19.82;46.93;100059.56;7252626;19;154719;-58
2022/11/24 04:18:55;;;;;;;;;;;;;;;19.82;47.06;100069.94;7248586;19;154333;-58
2022/11/24 04:21:22;;;;;;;;;;;;;;;19.82;47.08;100078.34;7254323;19;155065;-58
2022/11/24 04:23:48;;;;;;;;;;;;;;;19.76;46.89;100074.88;7250198;19;153683;-58
2022/11/24 04:26:16;;;;;;;;;;;;;;;19.76;47.05;100085.28;7254433;19;153292;-59
2022/11/24 04:28:43;;;;;;;;;;;;;;;19.74;47.27;100076.34;7259845;19;153540;-58
2022/11/24 04:31:10;;;;;;;;;;;;;;;19.71;47.71;100086.25;7254804;19;153894;-58
2022/11/24 04:33:37;;;;;;;;;;;;;;;19.72;47.37;100087.88;7251472;19;153537;-58
2022/11/24 04:36:04;;;;;;;;;;;;;;;19.68;47.61;100084.06;7255682;19;153454;-58
2022/11/24 04:38:31;;;;;;;;;;;;;;;19.67;47.57;100088.00;7254722;19;154180;-58
2022/11/24 04:41:17;;;;;;;;;;;;;;;19.65;47.53;100086.69;7252719;19;157533;-58
2022/11/24 04:43:47;;;;;;;;;;;;;;;19.62;47.53;100088.19;7253112;19;152686;-58
2022/11/24 04:46:14;;;;;;;;;;;;;;;19.60;47.52;100087.66;7254272;19;153293;-58
2022/11/24 04:48:41;;;;;;;;;;;;;;;19.59;47.61;100096.38;7252759;19;154453;-58
2022/11/24 04:51:09;;;;;;;;;;;;;;;19.59;47.78;100097.22;7261537;19;153225;-58
2022/11/24 04:53:36;;;;;;;;;;;;;;;19.57;47.78;100093.09;7250885;19;153386;-58
2022/11/24 04:56:04;;;;;;;;;;;;;;;19.56;47.88;100105.44;7257436;19;153914;-58
2022/11/24 04:58:31;;;;;;;;;;;;;;;19.54;47.79;100106.59;7251397;19;153232;-58
2022/11/24 05:00:58;;;;;;;;;;;;;;;19.52;47.95;100117.31;7246536;19;154948;-58
2022/11/24 05:03:25;;;;;;;;;;;;;;;19.51;48.04;100115.66;7250661;19;152939;-58
2022/11/24 05:05:52;;;;;;;;;;;;;;;19.51;47.79;100112.03;7251834;19;153723;-58
2022/11/24 05:08:19;;;;;;;;;;;;;;;19.49;47.96;100119.91;7252301;19;155167;-58
2022/11/24 05:10:45;;;;;;;;;;;;;;;19.50;47.96;100133.59;7251589;19;153316;-58
2022/11/24 05:13:12;;;;;;;;;;;;;;;19.47;47.92;100134.25;7259598;19;153837;-59
2022/11/24 05:15:40;;;;;;;;;;;;;;;19.44;47.71;100129.28;7254085;19;153420;-58
2022/11/24 05:18:09;;;;;;;;;;;;;;;19.45;48.16;100128.13;7252542;19;154919;-59
2022/11/24 05:20:36;;;;;;;;;;;;;;;19.46;48.23;100134.56;7251152;19;153830;-58
2022/11/24 05:23:04;;;;;;;;;;;;;;;19.48;48.65;100127.50;7247136;19;153982;-59
2022/11/24 05:25:32;;;;;;;;;;;;;;;19.52;48.48;100131.31;7246716;19;153301;-58
2022/11/24 05:28:00;;;;;;;;;;;;;;;19.57;48.91;100132.34;7246020;19;153245;-59
2022/11/24 05:30:27;;;;;;;;;;;;;;;19.61;48.48;100136.13;7247966;19;154045;-58
2022/11/24 05:32:54;;;;;;;;;;;;;;;19.65;48.63;100131.53;7247218;19;153457;-58
2022/11/24 05:35:21;;;;;;;;;;;;;;;19.69;48.59;100140.94;7253231;19;153189;-58
2022/11/24 05:37:48;;;;;;;;;;;;;;;19.72;48.69;100143.94;7251029;19;154469;-59
2022/11/24 05:40:15;;;;;;;;;;;;;;;19.75;49.32;100153.69;7247499;19;153349;-58
2022/11/24 05:42:42;;;;;;;;;;;;;;;19.78;49.54;100158.63;7250023;19;154477;-58
2022/11/24 05:45:15;;;;;;;;;;;;;;;19.80;49.12;100161.97;7246666;19;154516;-58
2022/11/24 05:47:42;;;;;;;;;;;;;;;19.83;49.37;100161.31;7246310;19;154226;-59
2022/11/24 05:50:10;;;;;;;;;;;;;;;19.85;49.33;100171.03;7246798;19;152867;-58
2022/11/24 05:52:37;;;;;;;;;;;;;;;19.90;49.66;100181.28;7245891;19;154983;-58
2022/11/24 05:55:04;;;;;;;;;;;;;;;19.95;49.35;100187.56;7253246;19;153446;-58
2022/11/24 05:57:31;;;;;;;;;;;;;;;19.98;49.22;100186.94;7249729;19;153983;-58
2022/11/24 05:59:59;;;;;;;;;;;;;;;20.02;49.38;100187.13;7248344;19;153840;-58
2022/11/24 06:02:25;;;;;;;;;;;;;;;20.06;49.26;100185.31;7252764;19;153492;-58
2022/11/24 06:04:53;;;;;;;;;;;;;;;20.11;49.67;100196.41;7251820;19;154114;-58
2022/11/24 06:07:19;;;;;;;;;;;;;;;20.15;49.53;100188.97;7252026;19;152778;-58
2022/11/24 06:09:46;;;;;;;;;;;;;;;20.19;49.21;100195.59;7255571;19;153460;-58
2022/11/24 06:12:13;;;;;;;;;;;;;;;20.24;49.60;100203.03;7252713;19;153804;-63
2022/11/24 06:14:40;;;;;;;;;;;;;;;20.27;49.08;100199.56;7255081;19;153886;-58
2022/11/24 06:17:08;;;;;;;;;;;;;;;20.33;49.18;100206.72;7267730;19;153806;-58
2022/11/24 06:19:35;;;;;;;;;;;;;;;20.38;49.48;100206.59;7253823;19;154016;-59
2022/11/24 06:22:07;;;;;;;;;;;;;;;20.43;50.10;100203.63;7260877;19;153416;-59
2022/11/24 06:24:34;;;;;;;;;;;;;;;20.47;49.41;100210.25;7266587;19;155474;-59
2022/11/24 06:27:01;;;;;;;;;;;;;;;20.52;49.41;100220.50;7266368;19;154664;-59
2022/11/24 06:29:28;;;;;;;;;;;;;;;20.56;49.55;100205.47;7258121;19;153092;-59
2022/11/24 06:31:55;;;;;;;;;;;;;;;20.60;49.36;100220.50;7258625;19;153768;-58
2022/11/24 06:34:22;;;;;;;;;;;;;;;20.65;49.43;100208.28;7253816;19;153668;-59
2022/11/24 06:36:49;;;;;;;;;;;;;;;20.70;49.60;100208.16;7258432;19;154670;-58
2022/11/24 06:39:16;;;;;;;;;;;;;;;20.75;49.54;100208.00;7263224;19;154171;-58
2022/11/24 06:41:42;;;;;;;;;;;;;;;20.80;49.20;100203.03;7258005;19;154266;-59
2022/11/24 06:44:09;;;;;;;;;;;;;;;20.83;48.81;100205.19;7256959;19;154945;-58
2022/11/24 06:46:36;;;;;;;;;;;;;;;20.88;48.76;100192.97;7256860;19;154460;-59
2022/11/24 06:49:03;;;;;;;;;;;;;;;20.91;48.85;100186.69;7257492;19;153052;-58
2022/11/24 06:51:30;;;;;;;;;;;;;;;20.96;48.98;100194.13;7256657;19;155173;-59
2022/11/24 06:53:57;;;;;;;;;;;;;;;21.00;48.84;100195.94;7254863;19;154139;-58
2022/11/24 06:56:24;;;;;;;;;;;;;;;21.04;48.95;100208.16;7253783;19;152872;-58
2022/11/24 06:58:51;;;;;;;;;;;;;;;21.08;48.80;100197.09;7257532;19;153817;-58
2022/11/24 07:01:21;;;;;;;;;;;;;;;21.11;48.75;100207.69;7260365;19;155160;-58
2022/11/24 07:03:48;;;;;;;;;;;;;;;21.14;48.07;100207.88;7251948;19;153752;-58
2022/11/24 07:06:16;;;;;;;;;;;;;;;21.18;47.94;100202.41;7255265;19;154175;-59
2022/11/24 07:08:43;;;;;;;;;;;;;;;21.20;48.23;100211.34;7251718;19;153512;-58
2022/11/24 07:11:11;;;;;;;;;;;;;;;21.23;48.00;100213.50;7257263;19;154278;-59
2022/11/24 07:13:38;;;;;;;;;;;;;;;21.26;48.21;100222.06;7252419;19;156023;-59
2022/11/24 07:16:08;;;;;;;;;;;;;;;21.28;47.81;100225.41;7256600;19;155408;-58
2022/11/24 07:18:35;;;;;;;;;;;;;;;21.31;47.81;100226.72;7250834;19;153187;-60
2022/11/24 07:21:03;;;;;;;;;;;;;;;21.32;47.64;100227.53;7251080;19;153771;-59
2022/11/24 07:23:30;;;;;;;;;;;;;;;21.35;47.28;100238.13;7255452;19;154528;-59
2022/11/24 07:25:57;;;;;;;;;;;;;;;21.37;46.72;100238.59;7251535;19;153517;-59
2022/11/24 07:28:32;;;;;;;;;;;;;;;21.39;46.86;100239.13;7251045;19;152928;-59
2022/11/24 07:31:03;;;;;;;;;;;;;;;21.40;46.57;100247.19;7252003;19;153377;-59
2022/11/24 07:33:30;;;;;;;;;;;;;;;21.41;46.44;100248.84;7248308;19;154289;-59
2022/11/24 07:35:58;;;;;;;;;;;;;;;21.44;46.28;100244.56;7250799;19;154069;-59
2022/11/24 07:38:25;;;;;;;;;;;;;;;21.45;46.38;100255.47;7251550;19;154550;-58
2022/11/24 07:40:52;;;;;;;;;;;;;;;21.53;45.69;100259.44;7249685;19;154042;-59
2022/11/24 07:43:19;;;;;;;;;;;;;;;21.45;44.56;100258.28;7259100;19;153922;-59
2022/11/24 07:45:49;;;;;;;;;;;;;;;21.40;42.06;100258.44;7251578;19;153804;-59
2022/11/24 07:48:16;;;;;;;;;;;;;;;21.41;42.34;100253.66;7251496;19;154184;-59
2022/11/24 07:50:43;;;;;;;;;;;;;;;21.41;42.45;100254.47;7250161;19;152666;-59
2022/11/24 07:53:10;;;;;;;;;;;;;;;21.43;42.53;100255.00;7249418;19;153582;-60
2022/11/24 07:55:37;;;;;;;;;;;;;;;21.45;42.76;100257.44;7252155;19;154001;-59
2022/11/24 07:58:04;;;;;;;;;;;;;;;21.45;42.90;100258.28;7251276;19;152662;-59
2022/11/24 08:00:31;;;;;;;;;;;;;;;21.46;43.01;100262.75;7249659;19;153818;-59
2022/11/24 08:02:58;;;;;;;;;;;;;;;21.47;42.89;100260.75;7247093;19;154249;-59
2022/11/24 08:05:25;;;;;;;;;;;;;;;21.48;42.71;100266.06;7255223;19;154117;-59
2022/11/24 08:07:51;;;;;;;;;;;;;;;21.49;42.72;100270.50;7248516;19;154867;-59
2022/11/24 08:10:18;;;;;;;;;;;;;;;21.49;43.00;100261.25;7249924;19;155509;-58
2022/11/24 08:12:45;;;;;;;;;;;;;;;21.49;42.69;100248.00;7250839;19;153866;-59
2022/11/24 08:15:12;;;;;;;;;;;;;;;21.49;42.94;100250.00;7255272;19;152642;-58
2022/11/24 08:17:39;;;;;;;;;;;;;;;21.50;43.37;100255.31;7254901;19;155026;-58
2022/11/24 08:20:07;;;;;;;;;;;;;;;21.53;43.52;100240.56;7249017;19;154465;-58
2022/11/24 08:22:34;;;;;;;;;;;;;;;21.53;43.05;100242.59;7255370;19;154865;-59
2022/11/24 08:25:01;;;;;;;;;;;;;;;21.50;43.08;100246.88;7252507;19;153673;-58
2022/11/24 08:27:29;;;;;;;;;;;;;;;21.51;43.65;100245.72;7260437;19;153609;-59
2022/11/24 08:29:55;;;;;;;;;;;;;;;21.48;43.29;100248.38;7254516;19;152741;-58
2022/11/24 08:32:22;;;;;;;;;;;;;;;21.46;43.23;100250.66;7254881;19;153315;-59
2022/11/24 08:34:49;;;;;;;;;;;;;;;21.43;43.15;100252.19;7252370;19;154412;-58
2022/11/24 08:37:23;;;;;;;;;;;;;;;21.42;42.86;100250.50;7255680;19;153510;-59
2022/11/24 08:39:51;;;;;;;;;;;;;;;21.41;42.88;100250.84;7249982;19;153582;-59
2022/11/24 08:42:18;;;;;;;;;;;;;;;21.39;42.91;100247.53;7254682;19;154569;-59
2022/11/24 08:44:45;;;;;;;;;;;;;;;21.36;42.84;100237.78;7253614;19;155408;-58
2022/11/24 08:47:12;;;;;;;;;;;;;;;21.33;43.09;100246.88;7253803;19;155442;-59
2022/11/24 08:49:39;;;;;;;;;;;;;;;21.34;43.16;100247.72;7260265;19;153205;-59
2022/11/24 08:52:06;;;;;;;;;;;;;;;21.31;43.02;100249.19;7253347;19;155322;-58
2022/11/24 08:54:33;;;;;;;;;;;;;;;21.30;43.08;100247.56;7252346;19;153456;-58
2022/11/24 08:57:01;;;;;;;;;;;;;;;21.31;42.74;100254.81;7254000;19;153668;-58
2022/11/24 08:59:28;;;;;;;;;;;;;;;21.26;42.74;100252.97;7251576;19;154282;-58
2022/11/24 09:01:55;;;;;;;;;;;;;;;21.27;42.79;100259.44;7252945;19;153457;-58
2022/11/24 09:04:22;;;;;;;;;;;;;;;21.24;43.23;100260.09;7247025;19;157056;-58
2022/11/24 09:06:49;;;;;;;;;;;;;;;21.23;42.77;100264.91;7254700;19;154065;-58
2022/11/24 09:09:16;;;;;;;;;;;;;;;21.20;42.97;100257.13;7253558;19;153397;-58
2022/11/24 09:11:44;;;;;;;;;;;;;;;21.19;43.17;100260.25;7259413;19;154845;-58
2022/11/24 09:14:11;;;;;;;;;;;;;;;21.16;43.01;100260.94;7253108;19;154597;-58
2022/11/24 09:16:38;;;;;;;;;;;;;;;21.13;43.01;100259.59;7249613;19;154837;-58
2022/11/24 09:19:06;;;;;;;;;;;;;;;21.13;43.21;100253.16;7244110;19;154071;-58
2022/11/24 09:21:36;;;;;;;;;;;;;;;21.12;42.85;100257.09;7246734;19;154306;-58
2022/11/24 09:24:04;;;;;;;;;;;;;;;21.12;43.09;100248.66;7247467;19;154321;-58
2022/11/24 09:26:33;;;;;;;;;;;;;;;21.09;43.12;100247.34;7244875;19;153821;-58
2022/11/24 09:29:01;;;;;;;;;;;;;;;21.11;42.88;100249.81;7248725;19;154069;-58
2022/11/24 09:31:29;;;;;;;;;;;;;;;21.10;43.16;100245.34;7250039;19;153280;-58
2022/11/24 09:33:56;;;;;;;;;;;;;;;21.07;42.87;100243.22;7257315;19;154090;-58
2022/11/24 09:36:24;;;;;;;;;;;;;;;21.06;43.03;100245.19;7258887;19;153755;-59
2022/11/24 09:38:51;;;;;;;;;;;;;;;21.04;43.29;100252.28;7251927;19;153786;-58
2022/11/24 09:41:18;;;;;;;;;;;;;;;21.06;43.22;100244.38;7255832;19;152644;-58
2022/11/24 09:43:48;;;;;;;;;;;;;;;21.04;43.38;100238.22;7256631;19;154061;-59
2022/11/24 09:46:24;;;;;;;;;;;;;;;21.02;43.15;100240.56;7252854;19;154093;-59
2022/11/24 09:48:54;;;;;;;;;;;;;;;21.00;43.01;100238.06;7251673;19;152902;-59
2022/11/24 09:51:24;;;;;;;;;;;;;;;21.00;43.32;100242.84;7253121;19;154004;-59
2022/11/24 09:53:55;;;;;;;;;;;;;;;20.98;43.22;100239.56;7261630;19;154466;-58
2022/11/24 09:56:25;;;;;;;;;;;;;;;20.95;43.28;100232.63;7254525;19;153533;-59
2022/11/24 09:58:53;;;;;;;;;;;;;;;20.94;43.12;100241.38;7255494;19;155719;-58
2022/11/24 10:01:23;;;;;;;;;;;;;;;20.91;43.12;100228.81;7255052;19;153366;-58
2022/11/24 10:03:51;;;;;;;;;;;;;;;20.90;43.21;100231.94;7253997;19;153450;-58
2022/11/24 10:06:21;;;;;;;;;;;;;;;20.89;43.17;100228.34;7255365;19;154531;-59
2022/11/24 10:08:49;;;;;;;;;;;;;;;20.86;43.28;100232.59;7254329;19;153312;-58
2022/11/24 10:11:25;;;;;;;;;;;;;;;20.85;43.67;100239.38;7261039;19;153697;-59
2022/11/24 10:14:01;;;;;;;;;;;;;;;20.86;43.69;100231.78;7255903;19;156102;-58
2022/11/24 10:16:28;;;;;;;;;;;;;;;20.83;43.71;100224.84;7268401;19;153449;-58
2022/11/24 10:18:56;;;;;;;;;;;;;;;20.83;43.43;100236.06;7255264;19;153696;-59
2022/11/24 10:21:23;;;;;;;;;;;;;;;20.80;43.60;100236.72;7258917;19;153227;-58
2022/11/24 10:23:53;;;;;;;;;;;;;;;20.82;43.64;100220.38;7259885;19;154431;-59
2022/11/24 10:26:24;;;;;;;;;;;;;;;20.80;43.65;100219.88;7251573;19;154339;-58
2022/11/24 10:28:53;;;;;;;;;;;;;;;20.82;43.56;100217.56;7257586;19;153559;-58
2022/11/24 10:31:23;;;;;;;;;;;;;;;20.79;44.13;100225.84;7256660;19;154276;-58
2022/11/24 10:33:50;;;;;;;;;;;;;;;20.83;44.07;100219.22;7253444;19;154487;-58
2022/11/24 10:36:20;;;;;;;;;;;;;;;20.84;43.84;100217.25;7256206;19;153743;-59
2022/11/24 10:38:52;;;;;;;;;;;;;;;20.82;44.34;100220.38;7263373;19;154977;-58
2022/11/24 10:41:23;;;;;;;;;;;;;;;20.83;44.25;100219.22;7254318;19;154101;-59
2022/11/24 10:43:50;;;;;;;;;;;;;;;20.83;44.52;100205.19;7256290;19;152875;-58
2022/11/24 10:46:22;;;;;;;;;;;;;;;20.83;44.39;100210.81;7253908;19;153033;-58
2022/11/24 10:48:53;;;;;;;;;;;;;;;20.85;44.66;100202.03;7253570;19;154156;-58
2022/11/24 10:51:24;;;;;;;;;;;;;;;20.86;44.91;100189.66;7254289;19;153391;-58
2022/11/24 10:53:56;;;;;;;;;;;;;;;20.91;44.78;100188.66;7255500;19;154262;-58
2022/11/24 10:56:25;;;;;;;;;;;;;;;20.95;44.54;100186.84;7254703;19;153761;-58
2022/11/24 10:58:52;;;;;;;;;;;;;;;20.97;44.73;100168.53;7257336;19;152770;-58
2022/11/24 11:01:25;;;;;;;;;;;;;;;21.00;44.72;100175.47;7263096;19;155400;-58
2022/11/24 11:03:54;;;;;;;;;;;;;;;21.03;44.60;100166.38;7251950;19;153256;-58
2022/11/24 11:06:21;;;;;;;;;;;;;;;21.06;44.93;100174.16;7250059;19;157058;-58
2022/11/24 11:08:48;;;;;;;;;;;;;;;21.08;44.85;100160.56;7253456;19;153997;-58
2022/11/24 11:11:16;;;;;;;;;;;;;;;21.10;44.72;100152.66;7256435;19;154569;-58
2022/11/24 11:13:50;;;;;;;;;;;;;;;21.12;44.71;100144.75;7249840;19;154101;-59
2022/11/24 11:16:20;;;;;;;;;;;;;;;21.13;44.81;100143.59;7250788;19;154823;-58
2022/11/24 11:18:48;;;;;;;;;;;;;;;21.15;44.32;100128.06;7247654;19;153958;-58
2022/11/24 11:21:18;;;;;;;;;;;;;;;21.16;44.61;100135.34;7253869;19;154650;-58
2022/11/24 11:23:50;;;;;;;;;;;;;;;21.18;44.38;100126.56;7259815;19;154413;-58
2022/11/24 11:26:18;;;;;;;;;;;;;;;21.19;44.57;100137.47;7250711;19;154170;-59
2022/11/24 11:28:49;;;;;;;;;;;;;;;21.20;44.34;100130.72;7250487;19;152528;-58
2022/11/24 11:31:19;;;;;;;;;;;;;;;21.20;44.13;100116.66;7252309;19;155828;-59
2022/11/24 11:33:51;;;;;;;;;;;;;;;21.22;44.11;100116.31;7249749;19;155358;-59
2022/11/24 11:36:40;;;;;;;;;;;;;;;21.22;44.45;100099.44;7254359;19;153258;-59
2022/11/24 11:39:14;;;;;;;;;;;;;;;21.22;44.42;100094.66;7252488;19;152657;-59
2022/11/24 11:41:44;;;;;;;;;;;;;;;21.23;44.32;100087.06;7248478;19;154345;-59
2022/11/24 11:44:15;;;;;;;;;;;;;;;21.20;44.12;100066.09;7250576;19;154796;-59
2022/11/24 11:46:45;;;;;;;;;;;;;;;21.19;44.32;100063.63;7255360;19;153282;-59
2022/11/24 11:49:18;;;;;;;;;;;;;;;21.21;44.07;100078.16;7250346;19;153510;-59
2022/11/24 11:51:52;;;;;;;;;;;;;;;21.20;44.47;100074.53;7253514;19;152695;-59
2022/11/24 11:54:26;;;;;;;;;;;;;;;21.18;44.28;100081.63;7248643;19;153845;-59
2022/11/24 11:57:04;;;;;;;;;;;;;;;21.18;44.24;100064.75;7248098;19;153276;-59
2022/11/24 11:59:38;;;;;;;;;;;;;;;21.18;44.58;100061.97;7247917;19;152650;-59
2022/11/24 12:02:06;;;;;;;;;;;;;;;21.18;44.28;100064.75;7249964;19;154057;-59
2022/11/24 12:04:36;;;;;;;;;;;;;;;21.17;44.49;100074.34;7250087;19;153340;-59
2022/11/24 12:07:06;;;;;;;;;;;;;;;21.18;44.30;100078.81;7253803;19;154391;-59
2022/11/24 12:09:38;;;;;;;;;;;;;;;21.20;44.69;100062.47;7254233;19;152691;-59
2022/11/24 12:12:08;;;;;;;;;;;;;;;21.18;44.30;100054.34;7254641;19;153922;-59
2022/11/24 12:14:35;;;;;;;;;;;;;;;21.15;44.50;100057.84;7253767;19;154240;-59
2022/11/24 12:17:05;;;;;;;;;;;;;;;21.16;44.56;100044.63;7254328;19;153482;-59
2022/11/24 12:19:33;;;;;;;;;;;;;;;21.15;44.17;100034.53;7251216;19;154631;-59
2022/11/24 12:22:01;;;;;;;;;;;;;;;21.12;44.43;100044.41;7252919;19;155048;-59
2022/11/24 12:24:36;;;;;;;;;;;;;;;21.12;44.05;100040.81;7254302;19;154160;-59
2022/11/24 12:27:05;;;;;;;;;;;;;;;21.08;44.54;100039.81;7253063;19;153086;-59
2022/11/24 12:29:33;;;;;;;;;;;;;;;21.05;44.48;100030.06;7256675;19;153083;-59
2022/11/24 12:32:01;;;;;;;;;;;;;;;21.05;43.99;100023.63;7251578;19;153157;-59
2022/11/24 12:34:34;;;;;;;;;;;;;;;21.00;44.40;100021.00;7249987;19;154198;-59
2022/11/24 12:37:02;;;;;;;;;;;;;;;20.97;44.34;100019.69;7254705;19;154273;-59
2022/11/24 12:39:34;;;;;;;;;;;;;;;20.95;44.73;100022.00;7253054;19;154443;-59